NCAR-RAP Real-Time Weather Data

Output produced by METARs form (06 May 2021  16:37 UTC)
found at http://weather.rap.ucar.edu/surface/
 
KMGW 061553Z VRB03KT 10SM SCT027 11/02 A3013 RMK AO2 SLP206 T01060017
KMGW 061453Z 00000KT 10SM SCT027 09/02 A3015 RMK AO2 SLP214 T00890022 56004
KMGW 061353Z 36004KT 10SM FEW012 09/04 A3015 RMK AO2 SLP215 T00890039
KMGW 061348Z 00000KT 10SM SCT012 08/04 A3015 RMK AO2
KMGW 061319Z 00000KT 10SM BKN012 BKN021 07/04 A3015 RMK AO2 T00720044
KMGW 061300Z 00000KT 10SM BKN022 07/04 A3016 RMK AO2 T00670039
KMGW 061253Z 00000KT 5SM BR BKN006 06/04 A3016 RMK AO2 SLP219 T00610044
KMGW 061222Z 00000KT 5SM BR FEW002 06/04 A3015 RMK AO2 T00560044
KMGW 061201Z 00000KT 3SM BR OVC002 04/04 A3014 RMK AO2 T00440039
KMGW 061158Z 00000KT 2SM BR OVC001 05/04 A3014 RMK AO2 T00500044
KMGW 061153Z 00000KT 1/2SM FG BKN001 BKN013 BKN024 04/04 A3014 RMK AO2 SLP210 70009 T00440039 10056 20028 53007
KMGW 061127Z 00000KT 1/2SM FG BKN001 BKN013 BKN024 04/03 A3013 RMK AO2 T00390028
KMGW 061123Z 00000KT 1SM BR SCT001 BKN026 04/03 A3013 RMK AO2 T00390033
KMGW 061112Z 00000KT 1SM BR VV001 04/03 A3013 RMK AO2 T00390033
KMGW 061053Z 00000KT 1/4SM FG BKN001 OVC023 03/03 A3013 RMK AO2 SLP205 T00330028
KMGW 060953Z AUTO 00000KT 1/4SM FG BKN001 OVC024 03/02 A3012 RMK AO2 SLP204 T00330022
KMGW 060918Z AUTO 21003KT 1/4SM FG VV001 03/02 A3012 RMK AO2 T00330022
KMGW 060909Z AUTO 20003KT 1/2SM FG VV001 03/03 A3012 RMK AO2 T00330028
KMGW 060853Z AUTO 21003KT 3/4SM BR FEW004 SCT019 SCT027 04/03 A3012 RMK AO2 SLP202 T00390028 50005
KMGW 060851Z AUTO 20003KT 1SM BR FEW006 SCT025 SCT034 04/03 A3012 RMK AO2
KMGW 060838Z AUTO 00000KT 1SM BR SCT002 BKN020 BKN027 04/02 A3012 RMK AO2 T00390022
KMGW 060834Z AUTO 00000KT 1/2SM FG BKN002 BKN018 OVC034 03/02 A3012 RMK AO2 T00330022
KMGW 060753Z AUTO 20003KT 1/4SM FG VV001 04/03 A3011 RMK AO2 SLP200 T00390028
KMGW 060741Z AUTO 19003KT 1/4SM FG VV001 04/03 A3011 RMK AO2 T00390028
KMGW 060734Z AUTO 20003KT 1SM BR VV001 04/03 A3010 RMK AO2 T00390028
KMGW 060728Z AUTO 00000KT 2 1/2SM BR FEW002 04/03 A3010 RMK AO2 T00440033
KMGW 060653Z AUTO 00000KT 10SM CLR 04/03 A3010 RMK AO2 SLP196 T00440028
KMGW 060553Z AUTO 00000KT 10SM SCT031 BKN049 05/03 A3010 RMK AO2 SLP197 T00500033 10106 20050 58002
KMGW 060453Z AUTO 31003KT 10SM CLR 07/03 A3011 RMK AO2 SLP199 T00670033 401830067
KMGW 060353Z AUTO 00000KT 10SM SCT049 07/03 A3010 RMK AO2 SLP198 T00720033
KMGW 060253Z 33004KT 10SM OVC046 08/04 A3011 RMK AO2 SLP199 T00830039 51027
KMGW 060153Z 34004KT 10SM BKN049 08/04 A3009 RMK AO2 SLP192 T00830044
KMGW 060105Z 35007KT 10SM FEW019 SCT029 BKN055 09/04 A3006 RMK AO2 T00890044
KMGW 060053Z 32008KT 10SM SCT016 BKN021 BKN028 09/04 A3006 RMK AO2 SLP182 T00940044
KMGW 060040Z 33007KT 10SM BKN016 OVC055 10/06 A3006 RMK AO2 T01000056